Windom, Indiana
Current Conditions -  °F | °C
As of 8:15 AM on Friday 24 Oct 2014 (Local Time) from KDCY Reporting Station
Overcast Overcast  
Wind Chill:   Ceiling: 3400
Heat Index:   Visibility: 7mi
Dew Point:   Wind: 5mph
Humidity: 97%   Direction: 170°S
Pressure: 30.12"   Gusts: NA
Location:  38.6262°N, 86.7615°W
Report Text: KDCY 241315Z AUTO 17004KT 7SM OVC034 09/08 A3012 RMK AO2 T00870082
Loading
Personal Weather Stations






























Interactive Weather Map
Tropical Storm Tracking
New forecast layout! Learn more

10-Day Weather Forecast

Advertisements
Track Severe Weather on mobile